createdAt,value
2023-04-14T00:00:07.721Z,53.74
2023-04-14T00:02:39.968Z,54.32
2023-04-14T00:05:08.959Z,54.38
2023-04-14T00:07:38.011Z,53.67
2023-04-14T00:10:09.499Z,53.52
2023-04-14T00:12:36.852Z,52.86
2023-04-14T00:15:05.245Z,53.23
2023-04-14T00:17:33.105Z,52.34
2023-04-14T00:20:00.814Z,52.24
2023-04-14T00:22:28.289Z,53.28
2023-04-14T00:24:56.415Z,53.26
2023-04-14T00:27:23.685Z,51.58
2023-04-14T00:29:51.555Z,52.50
2023-04-14T00:32:19.900Z,51.42
2023-04-14T00:34:47.350Z,51.54
2023-04-14T00:37:15.240Z,50.73
2023-04-14T00:39:43.121Z,51.05
2023-04-14T00:42:10.920Z,50.52
2023-04-14T00:44:38.163Z,49.85
2023-04-14T00:47:06.896Z,51.03
2023-04-14T00:49:34.666Z,50.75
2023-04-14T00:52:02.065Z,50.83
2023-04-14T00:54:31.296Z,50.41
2023-04-14T00:57:00.814Z,50.29
2023-04-14T00:59:31.026Z,49.92
2023-04-14T01:01:58.857Z,50.36
2023-04-14T01:04:36.843Z,49.14
2023-04-14T01:07:13.118Z,50.24
2023-04-14T01:09:40.733Z,49.51
2023-04-14T01:12:08.848Z,50.50
2023-04-14T01:14:42.567Z,50.58
2023-04-14T01:17:14.982Z,50.76
2023-04-14T01:19:43.276Z,50.84
2023-04-14T01:22:12.288Z,48.90
2023-04-14T01:25:24.047Z,49.22
2023-04-14T01:28:10.814Z,50.35
2023-04-14T01:30:39.062Z,48.76
2023-04-14T01:33:08.734Z,48.80
2023-04-14T01:35:45.245Z,49.17
2023-04-14T01:38:15.508Z,48.77
2023-04-14T01:40:48.839Z,48.60
2023-04-14T01:43:17.659Z,48.11
2023-04-14T01:45:47.059Z,47.62
2023-04-14T01:48:14.658Z,48.35
2023-04-14T01:50:43.315Z,47.38
2023-04-14T01:53:11.674Z,48.41
2023-04-14T01:55:39.157Z,48.47
2023-04-14T01:58:07.252Z,48.82
2023-04-14T02:00:36.162Z,48.48
2023-04-14T02:03:04.836Z,49.47
2023-04-14T02:05:32.708Z,49.10
2023-04-14T02:08:01.637Z,49.12
2023-04-14T02:10:29.894Z,49.42
2023-04-14T02:12:58.010Z,48.50
2023-04-14T02:15:26.259Z,48.24
2023-04-14T02:17:53.778Z,48.25
2023-04-14T02:20:21.645Z,48.67
2023-04-14T02:22:49.476Z,48.24
2023-04-14T02:25:17.011Z,47.96
2023-04-14T02:28:01.990Z,47.56
2023-04-14T02:30:33.512Z,47.80
2023-04-14T02:33:20.679Z,47.50
2023-04-14T02:35:49.748Z,48.08
2023-04-14T02:38:24.516Z,47.80
2023-04-14T02:40:52.429Z,48.04
2023-04-14T02:43:22.924Z,47.28
2023-04-14T02:45:50.893Z,47.79
2023-04-14T02:48:18.561Z,46.70
2023-04-14T02:50:47.075Z,47.22
2023-04-14T02:53:17.865Z,46.78
2023-04-14T02:55:46.312Z,47.07
2023-04-14T02:58:14.857Z,46.61
2023-04-14T03:00:43.162Z,46.83
2023-04-14T03:03:13.045Z,46.78
2023-04-14T03:05:41.963Z,46.73
2023-04-14T03:08:20.485Z,46.60
2023-04-14T03:10:51.020Z,47.04
2023-04-14T03:13:18.789Z,47.18
2023-04-14T03:15:53.739Z,46.93
2023-04-14T03:18:22.438Z,45.87
2023-04-14T03:20:51.904Z,47.29
2023-04-14T03:23:20.378Z,46.39
2023-04-14T03:25:49.273Z,47.07
2023-04-14T03:28:18.149Z,46.32
2023-04-14T03:30:49.152Z,47.48
2023-04-14T03:33:27.526Z,49.05
2023-04-14T03:35:56.792Z,49.69
2023-04-14T03:38:27.934Z,49.00
2023-04-14T03:41:00.574Z,48.22
2023-04-14T03:43:29.632Z,48.28
2023-04-14T03:45:58.236Z,47.91
2023-04-14T03:48:30.390Z,49.42
2023-04-14T03:51:00.161Z,48.89
2023-04-14T03:53:31.164Z,48.16
2023-04-14T03:56:00.123Z,47.98
2023-04-14T03:58:37.451Z,48.74
2023-04-14T04:01:09.277Z,48.72
2023-04-14T04:03:38.722Z,48.88
2023-04-14T04:06:09.765Z,49.15
2023-04-14T04:08:45.120Z,48.23
2023-04-14T04:11:14.664Z,48.10
2023-04-14T04:13:44.722Z,47.32
2023-04-14T04:16:12.953Z,47.60
2023-04-14T04:18:47.643Z,47.69
2023-04-14T04:21:20.155Z,48.07
2023-04-14T04:23:49.256Z,49.67
2023-04-14T04:26:19.691Z,48.33
2023-04-14T04:28:48.478Z,47.75
2023-04-14T04:31:21.656Z,49.57
2023-04-14T04:33:50.295Z,49.46
2023-04-14T04:36:18.337Z,49.39
2023-04-14T04:38:46.754Z,49.92
2023-04-14T04:41:20.833Z,49.81
2023-04-14T04:43:49.697Z,50.05
2023-04-14T04:46:37.399Z,49.54
2023-04-14T04:49:05.641Z,50.50
2023-04-14T04:51:33.539Z,49.40
2023-04-14T04:54:02.059Z,49.36
2023-04-14T04:56:29.902Z,48.70
2023-04-14T05:01:33.387Z,49.12
2023-04-14T05:04:04.246Z,49.53
2023-04-14T05:06:55.976Z,49.91
2023-04-14T05:09:25.468Z,50.33
2023-04-14T05:11:56.112Z,49.94
2023-04-14T05:14:27.397Z,50.36
2023-04-14T05:16:58.436Z,49.91
2023-04-14T05:19:26.780Z,49.70
2023-04-14T05:21:55.808Z,49.97
2023-04-14T05:24:27.482Z,49.81
2023-04-14T05:27:12.972Z,49.77
2023-04-14T05:29:41.729Z,50.43
2023-04-14T05:32:12.990Z,49.73
2023-04-14T05:34:42.071Z,50.25
2023-04-14T05:37:10.888Z,49.88
2023-04-14T05:39:38.927Z,49.68
2023-04-14T05:42:06.832Z,48.72
2023-04-14T05:44:34.773Z,48.75
2023-04-14T05:47:05.980Z,49.63
2023-04-14T05:49:39.811Z,49.61
2023-04-14T05:52:11.675Z,49.58
2023-04-14T05:54:41.263Z,50.69
2023-04-14T05:57:09.995Z,49.23
2023-04-14T05:59:38.892Z,49.18
2023-04-14T06:02:14.362Z,50.90
2023-04-14T06:04:45.792Z,50.89
2023-04-14T06:07:13.550Z,51.77
2023-04-14T06:09:42.774Z,51.06
2023-04-14T06:12:14.299Z,49.50
2023-04-14T06:14:42.066Z,49.50
2023-04-14T06:17:09.934Z,50.10
2023-04-14T06:19:41.978Z,49.71
2023-04-14T06:22:09.559Z,49.42
2023-04-14T06:24:44.772Z,50.66
2023-04-14T06:27:14.609Z,50.62
2023-04-14T06:29:46.022Z,50.93
2023-04-14T06:32:13.752Z,49.63
2023-04-14T06:34:43.089Z,50.67
2023-04-14T06:37:11.729Z,49.43
2023-04-14T06:39:39.809Z,49.27
2023-04-14T06:42:07.631Z,50.21
2023-04-14T06:44:42.777Z,49.22
2023-04-14T06:47:13.385Z,50.20
2023-04-14T06:49:42.160Z,50.81
2023-04-14T06:52:09.891Z,50.59
2023-04-14T06:54:39.106Z,50.65
2023-04-14T06:57:13.743Z,51.21
2023-04-14T06:59:44.861Z,51.37
2023-04-14T07:02:15.118Z,50.63
2023-04-14T07:04:43.910Z,50.46
2023-04-14T07:07:14.422Z,51.61
2023-04-14T07:09:49.315Z,51.31
2023-04-14T07:12:39.856Z,50.50
2023-04-14T07:15:30.709Z,50.04
2023-04-14T07:18:01.463Z,50.96
2023-04-14T07:20:30.123Z,51.06
2023-04-14T07:23:12.822Z,50.99
2023-04-14T07:25:50.379Z,50.41
2023-04-14T07:28:19.878Z,51.07
2023-04-14T07:30:55.850Z,50.77
2023-04-14T07:33:52.753Z,50.34
2023-04-14T07:37:01.358Z,50.20
2023-04-14T07:39:30.772Z,50.59
2023-04-14T07:44:45.119Z,52.19
2023-04-14T07:47:46.454Z,50.84
2023-04-14T07:50:19.711Z,50.40
2023-04-14T07:52:49.707Z,51.68
2023-04-14T07:55:19.315Z,50.95
2023-04-14T07:57:57.942Z,53.17
2023-04-14T08:00:34.113Z,50.96
2023-04-14T08:03:11.841Z,51.34
2023-04-14T08:05:39.972Z,51.47
2023-04-14T08:08:27.724Z,51.37
2023-04-14T08:10:59.658Z,51.11
2023-04-14T08:13:29.599Z,50.78
2023-04-14T08:16:13.159Z,50.39
2023-04-14T08:18:51.264Z,52.06
2023-04-14T08:21:40.750Z,52.35
2023-04-14T08:24:08.544Z,50.94
2023-04-14T08:26:57.713Z,51.85
2023-04-14T08:29:40.704Z,52.47
2023-04-14T08:32:12.549Z,52.39
2023-04-14T08:35:38.892Z,52.02
2023-04-14T08:37:56.979Z,52.07
2023-04-14T08:40:24.736Z,52.72
2023-04-14T08:42:58.701Z,53.32
2023-04-14T08:45:28.781Z,53.81
2023-04-14T08:48:04.750Z,53.92
2023-04-14T08:50:37.755Z,54.66
2023-04-14T08:53:07.807Z,55.77
2023-04-14T08:55:42.694Z,56.55
2023-04-14T08:58:13.151Z,55.17
2023-04-14T09:00:41.399Z,56.77
2023-04-14T09:03:10.077Z,57.77
2023-04-14T09:05:38.350Z,57.82
2023-04-14T09:08:05.936Z,57.50
2023-04-14T09:10:35.767Z,56.72
2023-04-14T09:13:06.874Z,57.76
2023-04-14T09:15:37.400Z,57.38
2023-04-14T09:18:05.834Z,57.42
2023-04-14T09:20:41.956Z,59.44
2023-04-14T09:23:13.986Z,59.13
2023-04-14T09:25:44.004Z,60.97
2023-04-14T09:28:13.864Z,59.49
2023-04-14T09:30:44.183Z,59.88
2023-04-14T09:33:24.323Z,60.28
2023-04-14T09:35:56.509Z,61.56
2023-04-14T09:38:39.793Z,60.96
2023-04-14T09:41:08.480Z,61.90
2023-04-14T09:43:37.744Z,61.47
2023-04-14T09:46:07.987Z,60.80
2023-04-14T09:49:00.732Z,61.69
2023-04-14T09:54:07.278Z,61.36
2023-04-14T09:56:37.736Z,61.55
2023-04-14T09:59:10.796Z,61.15
2023-04-14T10:01:39.814Z,61.65
2023-04-14T10:04:23.194Z,60.91
2023-04-14T10:07:06.948Z,64.42
2023-04-14T10:09:38.013Z,63.73
2023-04-14T10:12:19.744Z,64.50
2023-04-14T10:14:47.729Z,65.32
2023-04-14T10:17:18.662Z,64.51
2023-04-14T10:23:40.661Z,64.10
2023-04-14T10:26:11.524Z,65.69
2023-04-14T10:28:39.611Z,65.77
2023-04-14T10:35:10.494Z,65.96
2023-04-14T10:37:45.598Z,67.10
2023-04-14T10:40:13.714Z,66.32
2023-04-14T10:42:52.198Z,68.16
2023-04-14T10:45:20.200Z,67.61
2023-04-14T10:47:51.841Z,67.50
2023-04-14T10:50:24.355Z,67.44
2023-04-14T10:52:56.485Z,68.79
2023-04-14T10:55:26.038Z,66.91
2023-04-14T10:58:07.113Z,66.92
2023-04-14T11:00:44.480Z,68.00
2023-04-14T11:03:19.389Z,68.67
2023-04-14T11:05:54.019Z,68.11
2023-04-14T11:08:43.784Z,68.92
2023-04-14T11:11:28.113Z,67.14
2023-04-14T11:14:37.009Z,67.80
2023-04-14T11:17:20.437Z,67.74
2023-04-14T11:20:23.686Z,67.90
2023-04-14T11:23:14.918Z,67.84
2023-04-14T11:25:58.411Z,68.49
2023-04-14T11:28:45.464Z,68.55
2023-04-14T11:31:30.310Z,68.43
2023-04-14T11:34:24.513Z,69.51
2023-04-14T11:37:04.448Z,69.83
2023-04-14T11:40:05.742Z,67.92
2023-04-14T11:42:53.053Z,68.68
2023-04-14T11:45:35.567Z,69.24
2023-04-14T11:48:41.290Z,70.07
2023-04-14T11:51:21.673Z,70.68
2023-04-14T11:54:04.244Z,70.22
2023-04-14T11:56:52.705Z,68.90
2023-04-14T11:59:44.673Z,71.54
2023-04-14T12:02:26.960Z,71.50
2023-04-14T12:05:20.096Z,71.46
2023-04-14T12:08:12.186Z,71.77
2023-04-14T12:10:49.116Z,71.28
2023-04-14T12:14:21.852Z,70.71
2023-04-14T12:17:22.735Z,71.82
2023-04-14T12:20:02.833Z,72.28
2023-04-14T12:23:05.528Z,71.00
2023-04-14T12:25:45.775Z,71.56
2023-04-14T12:28:30.991Z,72.14
2023-04-14T12:31:33.115Z,71.93
2023-04-14T12:34:19.929Z,71.43
2023-04-14T12:37:25.048Z,71.12
2023-04-14T12:40:12.454Z,73.19
2023-04-14T12:43:06.836Z,73.30
2023-04-14T12:45:51.375Z,73.28
2023-04-14T12:51:28.650Z,72.43
2023-04-14T12:54:12.690Z,72.17
2023-04-14T12:59:51.808Z,73.13
2023-04-14T13:02:47.880Z,71.73
2023-04-14T13:05:30.719Z,70.49
2023-04-14T13:08:15.769Z,71.17
2023-04-14T13:12:05.880Z,71.29
2023-04-14T13:17:47.583Z,71.41
2023-04-14T13:20:35.722Z,71.40
2023-04-14T13:23:25.685Z,70.96
2023-04-14T13:26:24.712Z,70.46
2023-04-14T13:29:10.737Z,71.14
2023-04-14T13:32:13.064Z,70.06
2023-04-14T13:35:04.933Z,70.79
2023-04-14T13:37:43.013Z,69.11
2023-04-14T13:40:40.647Z,71.21
2023-04-14T13:43:24.837Z,70.80
2023-04-14T13:46:11.611Z,70.22
2023-04-14T13:49:22.859Z,70.24
2023-04-14T13:52:16.095Z,70.71
2023-04-14T13:55:04.076Z,69.72
2023-04-14T13:57:48.248Z,71.42
2023-04-14T14:00:41.837Z,71.89
2023-04-14T14:03:30.800Z,71.67
2023-04-14T14:06:24.904Z,71.78
2023-04-14T14:09:08.374Z,70.11
2023-04-14T14:11:43.734Z,71.36
2023-04-14T14:14:45.903Z,71.78
2023-04-14T14:17:46.726Z,72.25
2023-04-14T14:20:39.680Z,72.44
2023-04-14T14:23:28.872Z,72.57
2023-04-14T14:26:22.408Z,72.43
2023-04-14T14:29:09.508Z,72.29
2023-04-14T14:31:59.707Z,70.71
2023-04-14T14:34:47.881Z,70.99
2023-04-14T14:37:42.271Z,71.78
2023-04-14T14:40:27.894Z,71.71
2023-04-14T14:43:17.700Z,71.31
2023-04-14T14:46:10.982Z,71.02
2023-04-14T14:48:53.708Z,71.15
2023-04-14T14:51:49.125Z,71.25
2023-04-14T14:54:29.653Z,71.19
2023-04-14T14:57:11.885Z,70.61
2023-04-14T15:00:08.794Z,68.32
2023-04-14T15:02:53.224Z,68.49
2023-04-14T15:05:44.754Z,70.66
2023-04-14T15:11:16.872Z,71.63
2023-04-14T15:13:58.858Z,71.94
2023-04-14T15:16:57.770Z,71.50
2023-04-14T15:19:38.753Z,72.37
2023-04-14T15:22:44.628Z,73.55
2023-04-14T15:25:31.930Z,71.93
2023-04-14T15:31:22.896Z,73.27
2023-04-14T15:34:12.037Z,72.47
2023-04-14T15:37:15.697Z,74.01
2023-04-14T15:39:52.857Z,73.03
2023-04-14T15:42:37.563Z,73.07
2023-04-14T15:45:41.739Z,72.73
2023-04-14T15:48:20.945Z,72.82
2023-04-14T15:51:14.209Z,70.84
2023-04-14T15:53:55.087Z,72.38
2023-04-14T15:56:41.179Z,72.14
2023-04-14T15:59:30.575Z,72.12
2023-04-14T16:02:18.086Z,72.40
2023-04-14T16:05:11.907Z,71.22
2023-04-14T16:07:59.913Z,71.85
2023-04-14T16:10:43.153Z,71.32
2023-04-14T16:13:27.578Z,71.92
2023-04-14T16:16:20.045Z,70.92
2023-04-14T16:19:20.298Z,72.76
2023-04-14T16:22:08.224Z,71.89
2023-04-14T16:24:50.959Z,71.71
2023-04-14T16:27:44.739Z,71.57
2023-04-14T16:30:29.063Z,73.92
2023-04-14T16:33:13.093Z,72.09
2023-04-14T16:38:54.222Z,71.78
2023-04-14T16:44:24.868Z,72.12
2023-04-14T16:47:13.427Z,72.89
2023-04-14T16:49:59.064Z,71.88
2023-04-14T16:52:46.202Z,72.18
2023-04-14T16:55:47.760Z,71.37
2023-04-14T16:58:34.708Z,71.32
2023-04-14T17:01:21.161Z,70.77
2023-04-14T17:04:20.437Z,69.87
2023-04-14T17:07:06.216Z,70.83
2023-04-14T17:09:54.609Z,70.07
2023-04-14T17:12:47.356Z,69.60
2023-04-14T17:15:39.686Z,68.87
2023-04-14T17:18:27.690Z,68.74
2023-04-14T17:21:16.541Z,68.38
2023-04-14T17:24:15.673Z,68.67
2023-04-14T17:26:59.793Z,68.01
2023-04-14T17:29:45.816Z,68.62
2023-04-14T17:32:29.690Z,67.57
2023-04-14T17:35:13.731Z,68.37
2023-04-14T17:37:59.689Z,68.92
2023-04-14T17:40:55.111Z,68.04
2023-04-14T17:43:42.898Z,67.50
2023-04-14T17:46:31.738Z,67.48
2023-04-14T17:49:28.475Z,66.97
2023-04-14T17:52:14.194Z,67.22
2023-04-14T17:55:09.015Z,66.58
2023-04-14T17:58:05.679Z,66.74
2023-04-14T18:03:43.930Z,65.65
2023-04-14T18:06:26.007Z,66.78
2023-04-14T18:09:15.982Z,66.31
2023-04-14T18:12:00.158Z,66.02
2023-04-14T18:14:50.671Z,67.81
2023-04-14T18:17:43.443Z,66.32
2023-04-14T18:20:26.648Z,65.25
2023-04-14T18:23:28.861Z,65.43
2023-04-14T18:29:05.009Z,65.33
2023-04-14T18:31:54.634Z,66.71
2023-04-14T18:34:54.072Z,66.92
2023-04-14T18:37:42.870Z,66.26
2023-04-14T18:40:27.891Z,66.02
2023-04-14T18:43:14.759Z,67.55
2023-04-14T18:46:14.140Z,65.83
2023-04-14T18:49:14.668Z,66.44
2023-04-14T18:52:02.697Z,65.34
2023-04-14T18:54:46.753Z,64.87
2023-04-14T18:57:32.683Z,63.81
2023-04-14T19:00:29.805Z,65.04
2023-04-14T19:03:20.768Z,64.59
2023-04-14T19:06:11.668Z,64.39
2023-04-14T19:14:31.658Z,63.07
2023-04-14T19:17:22.455Z,63.35
2023-04-14T19:22:56.867Z,62.99
2023-04-14T19:25:50.348Z,62.75
2023-04-14T19:28:34.592Z,63.94
2023-04-14T19:31:18.622Z,63.25
2023-04-14T19:34:00.751Z,62.97
2023-04-14T19:36:55.583Z,63.28
2023-04-14T19:39:46.799Z,63.00
2023-04-14T19:42:29.915Z,63.24
2023-04-14T19:45:12.140Z,63.85
2023-04-14T19:48:22.070Z,63.75
2023-04-14T19:50:54.935Z,63.38
2023-04-14T19:53:38.628Z,63.51
2023-04-14T19:56:34.192Z,64.21
2023-04-14T19:59:19.191Z,64.18
2023-04-14T20:02:06.715Z,64.59
2023-04-14T20:04:57.733Z,65.43
2023-04-14T20:07:37.923Z,65.43
2023-04-14T20:10:33.688Z,65.04
2023-04-14T20:13:16.058Z,64.32
2023-04-14T20:18:51.469Z,64.08
2023-04-14T20:21:39.861Z,64.17
2023-04-14T20:24:21.950Z,64.20
2023-04-14T20:27:11.192Z,64.04
2023-04-14T20:29:53.898Z,64.02
2023-04-14T20:32:38.731Z,64.27
2023-04-14T20:35:24.681Z,64.65
2023-04-14T20:38:07.983Z,64.05
2023-04-14T20:40:52.970Z,63.92
2023-04-14T20:43:39.129Z,64.09
2023-04-14T20:46:23.846Z,64.54
2023-04-14T20:49:08.079Z,64.69
2023-04-14T20:51:52.763Z,65.23
2023-04-14T20:54:37.024Z,64.68
2023-04-14T20:57:19.645Z,64.44
2023-04-14T21:00:01.684Z,64.24
2023-04-14T21:02:47.355Z,64.82
2023-04-14T21:05:32.728Z,64.14
2023-04-14T21:08:14.843Z,63.92
2023-04-14T21:11:16.030Z,64.07
2023-04-14T21:15:40.079Z,64.48
2023-04-14T21:16:24.782Z,64.04
2023-04-14T21:19:07.774Z,63.55
2023-04-14T21:21:49.552Z,63.72
2023-04-14T21:24:35.771Z,63.68
2023-04-14T21:27:22.712Z,63.45
2023-04-14T21:30:12.701Z,62.42
2023-04-14T21:32:55.028Z,62.88
2023-04-14T21:35:42.608Z,64.39
2023-04-14T21:38:35.828Z,64.45
2023-04-14T21:41:17.429Z,63.36
2023-04-14T21:43:59.493Z,64.00
2023-04-14T21:53:06.636Z,63.68
2023-04-14T21:56:03.440Z,63.46
2023-04-14T21:58:31.687Z,63.45
2023-04-14T22:01:14.889Z,63.68
2023-04-14T22:03:57.681Z,63.85
2023-04-14T22:06:40.921Z,64.52
2023-04-14T22:09:25.818Z,63.99
2023-04-14T22:12:07.861Z,64.43
2023-04-14T22:14:50.669Z,63.89
2023-04-14T22:17:37.524Z,63.28
2023-04-14T22:20:19.789Z,63.42
2023-04-14T22:23:13.475Z,64.27
2023-04-14T22:25:57.144Z,65.02
2023-04-14T22:28:39.929Z,65.56
2023-04-14T22:31:32.228Z,66.46
2023-04-14T22:34:14.224Z,65.75
2023-04-14T22:37:18.449Z,65.54
2023-04-14T22:39:57.938Z,65.61
2023-04-14T22:42:55.874Z,65.91
2023-04-14T22:45:37.409Z,65.46
2023-04-14T22:48:19.576Z,65.74
2023-04-14T22:51:13.257Z,65.79
2023-04-14T22:54:02.397Z,65.41
2023-04-14T22:57:12.625Z,64.65
2023-04-14T22:59:52.731Z,65.16
2023-04-14T23:02:45.596Z,64.87
2023-04-14T23:05:27.438Z,66.43
2023-04-14T23:08:18.322Z,67.38
2023-04-14T23:10:58.469Z,66.27
2023-04-14T23:13:52.857Z,65.92
2023-04-14T23:16:42.557Z,69.30
2023-04-14T23:19:33.769Z,68.58
2023-04-14T23:22:13.799Z,68.30
2023-04-14T23:25:07.334Z,68.27
2023-04-14T23:27:47.983Z,66.60
2023-04-14T23:30:45.848Z,67.17
2023-04-14T23:33:24.701Z,68.57
2023-04-14T23:36:18.729Z,69.56
2023-04-14T23:38:57.757Z,70.13
2023-04-14T23:41:49.507Z,70.17
2023-04-14T23:48:11.448Z,71.29
2023-04-14T23:51:21.899Z,69.50
2023-04-14T23:54:18.567Z,70.18
2023-04-14T23:56:59.162Z,68.25
2023-04-14T23:59:53.166Z,67.56
